createdAt,value
2023-04-02T00:00:19.141Z,95459.25
2023-04-02T00:02:49.784Z,95449.84
2023-04-02T00:05:52.213Z,95462.91
2023-04-02T00:08:38.897Z,95469.75
2023-04-02T00:11:07.784Z,95477.44
2023-04-02T00:13:37.707Z,95475.09
2023-04-02T00:16:08.440Z,95481.31
2023-04-02T00:18:43.739Z,95482.63
2023-04-02T00:21:18.205Z,95485.50
2023-04-02T00:23:47.716Z,95478.22
2023-04-02T00:26:38.910Z,95479.53
2023-04-02T00:29:08.373Z,95479.00
2023-04-02T00:31:42.065Z,95482.34
2023-04-02T00:34:16.461Z,95478.88
2023-04-02T00:36:46.704Z,95475.00
2023-04-02T00:39:20.914Z,95470.09
2023-04-02T00:41:58.852Z,95468.25
2023-04-02T00:44:32.824Z,95456.97
2023-04-02T00:47:09.316Z,95462.41
2023-04-02T00:49:40.601Z,95467.66
2023-04-02T00:52:09.864Z,95467.66
2023-04-02T00:54:44.006Z,95469.22
2023-04-02T00:57:18.540Z,95472.31
2023-04-02T00:59:56.293Z,95469.22
2023-04-02T01:02:31.138Z,95469.22
2023-04-02T01:05:02.377Z,95470.78
2023-04-02T01:07:46.105Z,95467.09
2023-04-02T01:10:41.546Z,95460.81
2023-04-02T01:13:21.866Z,95469.72
2023-04-02T01:15:56.726Z,95477.06
2023-04-02T01:18:46.470Z,95476.81
2023-04-02T01:21:37.191Z,95477.88
2023-04-02T01:24:07.384Z,95486.00
2023-04-02T01:26:53.235Z,95484.50
2023-04-02T01:29:24.970Z,95477.75
2023-04-02T01:31:55.073Z,95485.09
2023-04-02T01:34:26.752Z,95490.59
2023-04-02T01:37:08.125Z,95487.25
2023-04-02T01:39:49.082Z,95484.97
2023-04-02T01:42:23.006Z,95489.47
2023-04-02T01:44:54.231Z,95487.16
2023-04-02T01:47:27.461Z,95493.72
2023-04-02T01:49:59.413Z,95499.00
2023-04-02T01:52:37.815Z,95492.28
2023-04-02T01:55:07.754Z,95495.72
2023-04-02T01:57:36.028Z,95498.66
2023-04-02T02:00:10.836Z,95496.66
2023-04-02T02:02:39.126Z,95498.31
2023-04-02T02:05:13.573Z,95502.78
2023-04-02T02:07:42.166Z,95510.63
2023-04-02T02:10:15.623Z,95503.09
2023-04-02T02:12:46.007Z,95504.69
2023-04-02T02:15:19.724Z,95502.84
2023-04-02T02:17:48.646Z,95514.06
2023-04-02T02:20:17.929Z,95514.03
2023-04-02T02:22:48.491Z,95506.72
2023-04-02T02:25:20.846Z,95509.31
2023-04-02T02:27:54.672Z,95509.31
2023-04-02T02:30:28.579Z,95523.97
2023-04-02T02:33:03.606Z,95525.81
2023-04-02T02:35:37.653Z,95529.97
2023-04-02T02:38:28.749Z,95524.75
2023-04-02T02:41:01.974Z,95529.19
2023-04-02T02:43:30.416Z,95527.59
2023-04-02T02:46:00.400Z,95527.00
2023-04-02T02:48:35.922Z,95528.53
2023-04-02T02:51:09.713Z,95532.44
2023-04-02T02:53:47.685Z,95532.69
2023-04-02T02:56:16.247Z,95534.75
2023-04-02T02:58:44.544Z,95538.41
2023-04-02T03:01:14.149Z,95529.50
2023-04-02T03:03:42.573Z,95538.91
2023-04-02T03:06:16.714Z,95540.75
2023-04-02T03:08:48.436Z,95544.13
2023-04-02T03:11:21.707Z,95554.06
2023-04-02T03:13:52.097Z,95554.84
2023-04-02T03:16:28.479Z,95555.06
2023-04-02T03:19:02.208Z,95563.94
2023-04-02T03:21:36.322Z,95567.06
2023-04-02T03:24:11.783Z,95559.75
2023-04-02T03:26:44.151Z,95562.34
2023-04-02T03:29:18.070Z,95573.31
2023-04-02T03:31:49.853Z,95570.19
2023-04-02T03:34:25.639Z,95575.94
2023-04-02T03:36:59.125Z,95581.19
2023-04-02T03:39:34.574Z,95583.31
2023-04-02T03:42:08.683Z,95578.34
2023-04-02T03:44:40.459Z,95577.56
2023-04-02T03:47:17.728Z,95574.41
2023-04-02T03:49:49.533Z,95580.88
2023-04-02T03:52:24.457Z,95587.13
2023-04-02T03:54:54.528Z,95590.00
2023-04-02T03:57:28.753Z,95593.16
2023-04-02T04:00:05.056Z,95582.44
2023-04-02T04:02:44.332Z,95581.16
2023-04-02T04:05:24.500Z,95586.91
2023-04-02T04:07:54.685Z,95588.47
2023-04-02T04:10:27.047Z,95595.00
2023-04-02T04:13:02.952Z,95593.19
2023-04-02T04:15:34.534Z,95589.56
2023-04-02T04:18:10.672Z,95589.56
2023-04-02T04:20:46.618Z,95599.78
2023-04-02T04:23:30.212Z,95595.34
2023-04-02T04:26:01.998Z,95608.97
2023-04-02T04:28:38.680Z,95599.56
2023-04-02T04:31:18.057Z,95602.72
2023-04-02T04:33:54.923Z,95606.97
2023-04-02T04:36:28.888Z,95616.41
2023-04-02T04:39:01.578Z,95615.09
2023-04-02T04:41:34.785Z,95629.47
2023-04-02T04:44:08.041Z,95619.56
2023-04-02T04:46:41.475Z,95626.88
2023-04-02T04:49:16.976Z,95622.97
2023-04-02T04:51:50.083Z,95634.72
2023-04-02T04:54:18.664Z,95631.59
2023-04-02T04:56:49.549Z,95633.16
2023-04-02T04:59:24.008Z,95629.50
2023-04-02T05:01:56.986Z,95637.34
2023-04-02T05:04:32.237Z,95632.63
2023-04-02T05:07:06.248Z,95637.31
2023-04-02T05:09:39.353Z,95628.47
2023-04-02T05:12:18.915Z,95632.09
2023-04-02T05:14:52.530Z,95629.50
2023-04-02T05:17:25.573Z,95636.28
2023-04-02T05:20:00.584Z,95638.09
2023-04-02T05:22:39.425Z,95648.28
2023-04-02T05:25:20.316Z,95635.50
2023-04-02T05:27:54.506Z,95637.31
2023-04-02T05:30:41.071Z,95641.50
2023-04-02T05:33:22.637Z,95635.75
2023-04-02T05:35:57.699Z,95646.19
2023-04-02T05:38:29.413Z,95657.16
2023-04-02T05:41:02.516Z,95651.94
2023-04-02T05:43:34.419Z,95661.34
2023-04-02T05:46:14.342Z,95662.09
2023-04-02T05:48:44.665Z,95665.75
2023-04-02T05:51:20.068Z,95664.69
2023-04-02T05:53:50.438Z,95667.03
2023-04-02T05:56:23.061Z,95670.94
2023-04-02T05:58:53.911Z,95672.00
2023-04-02T06:01:33.644Z,95680.88
2023-04-02T06:04:08.696Z,95680.88
2023-04-02T06:07:01.848Z,95675.94
2023-04-02T06:09:40.674Z,95676.44
2023-04-02T06:12:17.085Z,95680.88
2023-04-02T06:14:45.800Z,95682.69
2023-04-02T06:17:16.339Z,95678.75
2023-04-02T06:19:45.872Z,95688.13
2023-04-02T06:22:24.036Z,95683.69
2023-04-02T06:24:57.835Z,95683.69
2023-04-02T06:27:28.245Z,95688.91
2023-04-02T06:30:01.159Z,95693.63
2023-04-02T06:32:29.269Z,95692.56
2023-04-02T06:34:57.467Z,95700.41
2023-04-02T06:37:32.748Z,95696.75
2023-04-02T06:40:01.776Z,95698.84
2023-04-02T06:42:33.514Z,95705.63
2023-04-02T06:45:01.872Z,95706.13
2023-04-02T06:47:34.393Z,95709.81
2023-04-02T06:50:08.945Z,95711.88
2023-04-02T06:52:44.761Z,95709.78
2023-04-02T06:55:29.008Z,95713.97
2023-04-02T06:57:57.164Z,95721.53
2023-04-02T07:00:30.791Z,95722.34
2023-04-02T07:03:02.104Z,95727.56
2023-04-02T07:05:30.165Z,95730.19
2023-04-02T07:07:59.568Z,95730.72
2023-04-02T07:10:27.603Z,95726.00
2023-04-02T07:12:55.584Z,95733.59
2023-04-02T07:15:25.551Z,95727.84
2023-04-02T07:17:54.975Z,95731.75
2023-04-02T07:20:28.398Z,95728.34
2023-04-02T07:22:57.120Z,95725.75
2023-04-02T07:25:27.976Z,95723.91
2023-04-02T07:27:56.339Z,95716.31
2023-04-02T07:30:24.395Z,95717.56
2023-04-02T07:32:52.509Z,95720.16
2023-04-02T07:35:20.580Z,95724.81
2023-04-02T07:37:48.544Z,95720.50
2023-04-02T07:40:19.117Z,95715.19
2023-04-02T07:42:48.549Z,95723.03
2023-04-02T07:45:17.104Z,95727.31
2023-04-02T07:47:45.228Z,95723.72
2023-04-02T07:50:13.501Z,95725.53
2023-04-02T07:52:43.392Z,95730.84
2023-04-02T07:55:13.035Z,95729.81
2023-04-02T07:57:44.308Z,95730.94
2023-04-02T08:00:16.348Z,95731.22
2023-04-02T08:02:44.480Z,95732.81
2023-04-02T08:05:12.758Z,95724.91
2023-04-02T08:07:41.680Z,95730.34
2023-04-02T08:10:12.013Z,95731.00
2023-04-02T08:12:40.858Z,95732.00
2023-04-02T08:15:11.630Z,95738.97
2023-04-02T08:17:41.222Z,95728.25
2023-04-02T08:20:11.987Z,95736.09
2023-04-02T08:22:40.066Z,95738.13
2023-04-02T08:25:09.338Z,95739.50
2023-04-02T08:27:37.419Z,95735.88
2023-04-02T08:30:06.821Z,95743.66
2023-04-02T08:32:34.997Z,95733.22
2023-04-02T08:35:04.585Z,95741.97
2023-04-02T08:37:32.674Z,95744.78
2023-04-02T08:40:00.872Z,95740.63
2023-04-02T08:42:36.082Z,95750.19
2023-04-02T08:45:25.061Z,95747.72
2023-04-02T08:47:56.231Z,95754.25
2023-04-02T08:50:32.239Z,95748.19
2023-04-02T08:53:01.962Z,95746.09
2023-04-02T08:55:36.329Z,95748.38
2023-04-02T08:58:19.442Z,95754.34
2023-04-02T09:00:50.151Z,95758.09
2023-04-02T09:03:21.372Z,95746.25
2023-04-02T09:05:53.018Z,95748.84
2023-04-02T09:08:24.696Z,95752.25
2023-04-02T09:11:00.596Z,95748.53
2023-04-02T09:13:30.296Z,95747.47
2023-04-02T09:16:04.937Z,95749.78
2023-04-02T09:18:33.915Z,95751.78
2023-04-02T09:21:09.995Z,95750.69
2023-04-02T09:23:38.216Z,95752.72
2023-04-02T09:26:22.095Z,95749.13
2023-04-02T09:28:50.549Z,95743.94
2023-04-02T09:31:23.580Z,95749.59
2023-04-02T09:33:54.722Z,95745.41
2023-04-02T09:36:41.988Z,95741.47
2023-04-02T09:39:18.989Z,95744.53
2023-04-02T09:41:55.757Z,95740.00
2023-04-02T09:44:32.852Z,95746.31
2023-04-02T09:47:03.764Z,95745.31
2023-04-02T09:49:34.595Z,95742.91
2023-04-02T09:52:20.501Z,95738.06
2023-04-02T09:55:06.086Z,95748.31
2023-04-02T09:57:34.191Z,95752.38
2023-04-02T10:00:21.800Z,95744.66
2023-04-02T10:03:05.342Z,95743.13
2023-04-02T10:08:20.930Z,95746.00
2023-04-02T10:10:54.016Z,95746.03
2023-04-02T10:13:28.017Z,95736.25
2023-04-02T10:16:01.121Z,95744.53
2023-04-02T10:18:40.146Z,95744.69
2023-04-02T10:21:11.726Z,95742.69
2023-04-02T10:23:41.888Z,95739.59
2023-04-02T10:26:30.888Z,95743.56
2023-04-02T10:29:17.682Z,95735.31
2023-04-02T10:31:56.660Z,95738.72
2023-04-02T10:34:29.099Z,95731.47
2023-04-02T10:37:03.673Z,95729.63
2023-04-02T10:39:39.293Z,95734.78
2023-04-02T10:42:17.848Z,95728.75
2023-04-02T10:44:53.098Z,95733.94
2023-04-02T10:47:35.324Z,95731.31
2023-04-02T10:50:22.472Z,95727.28
2023-04-02T10:52:58.732Z,95728.06
2023-04-02T10:55:31.644Z,95731.06
2023-04-02T10:58:07.257Z,95724.56
2023-04-02T11:00:40.510Z,95717.09
2023-04-02T11:03:14.460Z,95711.66
2023-04-02T11:05:44.984Z,95706.97
2023-04-02T11:08:18.349Z,95709.63
2023-04-02T11:10:51.562Z,95711.81
2023-04-02T11:13:23.330Z,95707.94
2023-04-02T11:15:51.731Z,95709.66
2023-04-02T11:18:29.492Z,95711.50
2023-04-02T11:21:00.754Z,95704.03
2023-04-02T11:23:31.517Z,95705.13
2023-04-02T11:26:33.833Z,95712.28
2023-04-02T11:29:14.284Z,95711.03
2023-04-02T11:31:43.918Z,95716.47
2023-04-02T11:34:17.513Z,95715.38
2023-04-02T11:37:03.564Z,95715.38
2023-04-02T11:39:55.272Z,95720.16
2023-04-02T11:42:34.476Z,95721.69
2023-04-02T11:45:51.982Z,95712.34
2023-04-02T11:48:36.268Z,95713.47
2023-04-02T11:51:17.930Z,95715.94
2023-04-02T11:53:48.557Z,95718.56
2023-04-02T11:56:23.904Z,95714.19
2023-04-02T11:59:05.735Z,95723.81
2023-04-02T12:01:51.780Z,95719.16
2023-04-02T12:04:47.187Z,95714.81
2023-04-02T12:07:53.530Z,95721.94
2023-04-02T12:10:23.336Z,95714.81
2023-04-02T12:12:52.274Z,95720.09
2023-04-02T12:15:45.190Z,95718.97
2023-04-02T12:18:17.105Z,95729.97
2023-04-02T12:20:50.916Z,95723.75
2023-04-02T12:23:23.238Z,95732.28
2023-04-02T12:25:58.634Z,95730.25
2023-04-02T12:28:30.096Z,95728.69
2023-04-02T12:31:12.546Z,95726.06
2023-04-02T12:33:41.629Z,95728.81
2023-04-02T12:36:21.459Z,95723.06
2023-04-02T12:38:52.012Z,95727.56
2023-04-02T12:41:25.161Z,95720.59
2023-04-02T12:44:00.596Z,95720.91
2023-04-02T12:46:29.226Z,95719.66
2023-04-02T12:49:04.704Z,95722.28
2023-04-02T12:51:34.804Z,95728.97
2023-04-02T12:54:03.149Z,95719.47
2023-04-02T12:56:31.344Z,95727.41
2023-04-02T12:59:00.678Z,95731.28
2023-04-02T13:01:31.719Z,95727.75
2023-04-02T13:04:05.242Z,95728.56
2023-04-02T13:06:36.705Z,95734.97
2023-04-02T13:09:07.156Z,95721.84
2023-04-02T13:11:37.372Z,95734.72
2023-04-02T13:14:07.050Z,95723.72
2023-04-02T13:16:37.105Z,95722.16
2023-04-02T13:19:26.991Z,95726.72
2023-04-02T13:21:58.261Z,95721.13
2023-04-02T13:24:28.655Z,95718.31
2023-04-02T13:26:58.764Z,95706.63
2023-04-02T13:29:29.278Z,95707.69
2023-04-02T13:32:00.331Z,95715.63
2023-04-02T13:34:29.076Z,95713.44
2023-04-02T13:36:58.689Z,95712.03
2023-04-02T13:39:27.230Z,95710.13
2023-04-02T13:41:58.669Z,95707.50
2023-04-02T13:44:29.038Z,95715.88
2023-04-02T13:46:58.646Z,95717.38
2023-04-02T13:49:27.648Z,95718.59
2023-04-02T13:51:59.131Z,95726.00
2023-04-02T13:54:33.832Z,95718.22
2023-04-02T13:57:02.323Z,95716.50
2023-04-02T13:59:30.980Z,95727.06
2023-04-02T14:02:05.677Z,95715.72
2023-04-02T14:04:39.039Z,95719.88
2023-04-02T14:07:29.531Z,95716.28
2023-04-02T14:10:06.717Z,95725.44
2023-04-02T14:12:54.184Z,95724.53
2023-04-02T14:15:37.545Z,95729.81
2023-04-02T14:18:30.043Z,95730.44
2023-04-02T14:21:11.880Z,95729.47
2023-04-02T14:23:57.143Z,95727.91
2023-04-02T14:26:39.563Z,95746.03
2023-04-02T14:29:17.368Z,95735.00
2023-04-02T14:31:50.442Z,95739.81
2023-04-02T14:34:24.228Z,95733.47
2023-04-02T14:36:59.666Z,95740.28
2023-04-02T14:39:38.997Z,95737.19
2023-04-02T14:42:16.114Z,95742.25
2023-04-02T14:44:50.184Z,95738.84
2023-04-02T14:47:25.852Z,95751.84
2023-04-02T14:49:56.648Z,95757.72
2023-04-02T14:52:28.896Z,95753.81
2023-04-02T14:55:02.386Z,95752.09
2023-04-02T14:57:38.406Z,95760.72
2023-04-02T15:00:10.134Z,95763.00
2023-04-02T15:02:45.045Z,95757.34
2023-04-02T15:05:19.095Z,95769.38
2023-04-02T15:07:52.249Z,95761.69
2023-04-02T15:10:33.202Z,95754.00
2023-04-02T15:13:10.326Z,95765.34
2023-04-02T15:15:44.463Z,95756.81
2023-04-02T15:18:15.905Z,95773.59
2023-04-02T15:20:57.517Z,95778.19
2023-04-02T15:23:39.966Z,95775.94
2023-04-02T15:26:19.143Z,95777.13
2023-04-02T15:28:56.731Z,95783.53
2023-04-02T15:31:29.403Z,95764.41
2023-04-02T15:34:16.837Z,95786.84
2023-04-02T15:37:14.378Z,95784.28
2023-04-02T15:39:58.052Z,95781.19
2023-04-02T15:42:30.920Z,95779.81
2023-04-02T15:45:30.451Z,95784.09
2023-04-02T15:48:15.107Z,95775.91
2023-04-02T15:50:53.284Z,95779.31
2023-04-02T15:53:40.470Z,95779.03
2023-04-02T15:56:25.170Z,95786.94
2023-04-02T15:59:27.834Z,95782.25
2023-04-02T16:02:08.478Z,95787.03
2023-04-02T16:04:47.465Z,95787.03
2023-04-02T16:07:36.265Z,95792.56
2023-04-02T16:10:14.237Z,95798.13
2023-04-02T16:12:42.419Z,95797.63
2023-04-02T16:15:17.912Z,95789.53
2023-04-02T16:17:56.216Z,95802.00
2023-04-02T16:20:27.517Z,95810.00
2023-04-02T16:23:01.417Z,95814.19
2023-04-02T16:25:34.560Z,95807.56
2023-04-02T16:28:15.619Z,95818.28
2023-04-02T16:30:51.499Z,95818.28
2023-04-02T16:33:40.520Z,95815.44
2023-04-02T16:36:19.843Z,95821.50
2023-04-02T16:38:58.920Z,95823.63
2023-04-02T16:41:41.540Z,95830.47
2023-04-02T16:44:24.400Z,95841.75
2023-04-02T16:47:03.466Z,95842.34
2023-04-02T16:49:41.839Z,95850.59
2023-04-02T16:52:21.195Z,95847.78
2023-04-02T16:55:11.892Z,95855.94
2023-04-02T16:57:51.628Z,95852.81
2023-04-02T17:00:26.403Z,95853.59
2023-04-02T17:03:07.340Z,95859.19
2023-04-02T17:05:51.804Z,95863.94
2023-04-02T17:08:25.270Z,95853.78
2023-04-02T17:10:58.510Z,95875.19
2023-04-02T17:13:32.868Z,95867.38
2023-04-02T17:16:07.794Z,95888.19
2023-04-02T17:18:36.829Z,95881.66
2023-04-02T17:21:08.698Z,95886.72
2023-04-02T17:23:55.802Z,95880.19
2023-04-02T17:26:28.579Z,95894.38
2023-04-02T17:28:58.766Z,95899.16
2023-04-02T17:31:34.083Z,95900.22
2023-04-02T17:34:10.910Z,95909.94
2023-04-02T17:36:47.496Z,95914.97
2023-04-02T17:39:23.163Z,95915.84
2023-04-02T17:41:57.092Z,95923.50
2023-04-02T17:44:47.360Z,95926.41
2023-04-02T17:47:21.440Z,95926.75
2023-04-02T17:50:05.559Z,95919.50
2023-04-02T17:52:42.315Z,95926.31
2023-04-02T17:55:19.750Z,95937.13
2023-04-02T17:58:01.599Z,95931.88
2023-04-02T18:00:57.375Z,95942.94
2023-04-02T18:03:50.579Z,95934.28
2023-04-02T18:06:22.876Z,95948.53
2023-04-02T18:09:04.452Z,95947.75
2023-04-02T18:11:44.464Z,95946.47
2023-04-02T18:14:29.116Z,95953.38
2023-04-02T18:17:06.397Z,95958.13
2023-04-02T18:19:44.463Z,95953.16
2023-04-02T18:22:20.710Z,95956.06
2023-04-02T18:25:15.810Z,95949.75
2023-04-02T18:27:56.659Z,95960.25
2023-04-02T18:30:31.242Z,95960.31
2023-04-02T18:33:28.418Z,95968.47
2023-04-02T18:36:00.909Z,95990.88
2023-04-02T18:38:40.999Z,95984.38
2023-04-02T18:41:23.079Z,95987.78
2023-04-02T18:44:01.707Z,95987.78
2023-04-02T18:46:39.693Z,95985.44
2023-04-02T18:49:21.756Z,95989.91
2023-04-02T18:51:53.440Z,96005.66
2023-04-02T18:54:24.674Z,96012.22
2023-04-02T18:56:54.148Z,96006.19
2023-04-02T18:59:33.617Z,96016.69
2023-04-02T19:02:12.141Z,96010.44
2023-04-02T19:04:43.035Z,96019.38
2023-04-02T19:07:15.947Z,96023.06
2023-04-02T19:09:47.686Z,96024.66
2023-04-02T19:12:19.890Z,96033.09
2023-04-02T19:14:50.251Z,96047.78
2023-04-02T19:17:28.142Z,96046.75
2023-04-02T19:20:04.404Z,96047.03
2023-04-02T19:22:44.885Z,96055.19
2023-04-02T19:25:29.861Z,96055.72
2023-04-02T19:28:09.220Z,96044.16
2023-04-02T19:30:52.323Z,96059.94
2023-04-02T19:33:35.658Z,96061.56
2023-04-02T19:36:15.884Z,96065.47
2023-04-02T19:38:55.950Z,96063.38
2023-04-02T19:41:30.758Z,96067.84
2023-04-02T19:44:00.459Z,96064.75
2023-04-02T19:46:28.911Z,96070.56
2023-04-02T19:49:05.229Z,96076.91
2023-04-02T19:51:33.680Z,96078.03
2023-04-02T19:54:02.138Z,96072.28
2023-04-02T19:56:30.207Z,96082.81
2023-04-02T19:59:02.442Z,96066.56
2023-04-02T20:01:36.264Z,96079.97
2023-04-02T20:04:04.910Z,96074.50
2023-04-02T20:06:33.258Z,96083.41
2023-04-02T20:09:01.465Z,96083.41
2023-04-02T20:11:29.656Z,96088.66
2023-04-02T20:13:59.247Z,96086.03
2023-04-02T20:16:27.344Z,96091.53
2023-04-02T20:18:55.670Z,96098.13
2023-04-02T20:21:23.902Z,96095.50
2023-04-02T20:23:54.604Z,96099.44
2023-04-02T20:26:23.498Z,96105.47
2023-04-02T20:28:51.546Z,96099.44
2023-04-02T20:31:21.189Z,96112.25
2023-04-02T20:33:49.382Z,96110.69
2023-04-02T20:36:18.851Z,96112.28
2023-04-02T20:38:47.048Z,96108.59
2023-04-02T20:41:16.629Z,96120.16
2023-04-02T20:43:44.709Z,96117.00
2023-04-02T20:46:13.769Z,96124.06
2023-04-02T20:48:43.631Z,96126.97
2023-04-02T20:51:15.371Z,96130.09
2023-04-02T20:53:44.276Z,96132.69
2023-04-02T20:56:14.523Z,96141.63
2023-04-02T20:58:43.924Z,96132.97
2023-04-02T21:01:15.721Z,96140.81
2023-04-02T21:03:45.540Z,96140.03
2023-04-02T21:06:15.303Z,96141.34
2023-04-02T21:08:43.509Z,96144.47
2023-04-02T21:11:12.626Z,96138.97
2023-04-02T21:13:44.087Z,96140.00
2023-04-02T21:16:16.133Z,96145.78
2023-04-02T21:18:45.999Z,96141.59
2023-04-02T21:21:16.040Z,96137.69
2023-04-02T21:23:45.967Z,96141.88
2023-04-02T21:26:16.045Z,96138.97
2023-04-02T21:28:45.206Z,96148.41
2023-04-02T21:31:15.429Z,96143.16
2023-04-02T21:33:46.625Z,96148.41
2023-04-02T21:36:16.071Z,96152.34
2023-04-02T21:38:44.784Z,96156.53
2023-04-02T21:41:14.751Z,96153.66
2023-04-02T21:43:42.981Z,96167.78
2023-04-02T21:46:11.665Z,96176.44
2023-04-02T21:48:40.742Z,96170.41
2023-04-02T21:51:13.146Z,96176.72
2023-04-02T21:53:42.134Z,96180.91
2023-04-02T21:56:13.412Z,96175.94
2023-04-02T21:58:41.733Z,96176.72
2023-04-02T22:01:16.941Z,96180.41
2023-04-02T22:03:52.462Z,96180.94
2023-04-02T22:06:23.391Z,96176.47
2023-04-02T22:08:55.235Z,96177.78
2023-04-02T22:11:26.173Z,96183.03
2023-04-02T22:13:55.220Z,96176.22
2023-04-02T22:16:25.705Z,96185.09
2023-04-02T22:18:55.956Z,96172.28
2023-04-02T22:21:25.758Z,96182.22
2023-04-02T22:23:54.115Z,96187.75
2023-04-02T22:26:23.868Z,96189.31
2023-04-02T22:28:52.737Z,96191.41
2023-04-02T22:31:23.571Z,96186.44
2023-04-02T22:33:52.823Z,96187.22
2023-04-02T22:36:22.757Z,96188.81
2023-04-02T22:38:52.615Z,96185.66
2023-04-02T22:41:22.626Z,96185.94
2023-04-02T22:43:50.966Z,96191.97
2023-04-02T22:46:20.448Z,96197.22
2023-04-02T22:48:49.605Z,96193.00
2023-04-02T22:51:19.806Z,96195.63
2023-04-02T22:53:48.779Z,96200.59
2023-04-02T22:56:21.703Z,96193.78
2023-04-02T22:58:50.124Z,96203.50
2023-04-02T23:01:21.504Z,96194.06
2023-04-02T23:03:50.420Z,96202.47
2023-04-02T23:06:19.540Z,96202.47
2023-04-02T23:08:47.957Z,96199.34
2023-04-02T23:11:19.417Z,96195.94
2023-04-02T23:13:49.729Z,96192.53
2023-04-02T23:16:18.495Z,96192.53
2023-04-02T23:18:48.215Z,96195.13
2023-04-02T23:21:16.919Z,96186.25
2023-04-02T23:23:45.611Z,96195.41
2023-04-02T23:26:15.991Z,96189.66
2023-04-02T23:28:45.771Z,96188.34
2023-04-02T23:31:16.402Z,96193.56
2023-04-02T23:33:45.005Z,96187.81
2023-04-02T23:36:15.975Z,96181.00
2023-04-02T23:38:44.125Z,96181.00
2023-04-02T23:41:14.962Z,96191.19
2023-04-02T23:43:43.320Z,96184.63
2023-04-02T23:46:12.907Z,96191.44
2023-04-02T23:48:41.278Z,96193.25
2023-04-02T23:51:09.448Z,96199.50
2023-04-02T23:53:37.565Z,96196.34
2023-04-02T23:56:06.218Z,96194.53
2023-04-02T23:58:34.394Z,96190.84
